Terminal Aerodrome Forecast
Issued by NWS

Home | Current Version | Previous Version | Graphics & Text | Print | Product List | Glossary On
Versions: 1 2 3 4 5 6 7 8 9 10 11 12 13
000
FTUS43 KGRB 021124
TAFAUW
TAF
KAUW 021124Z 0212/0312 35004KT P6SM FEW080
     FM021600 35005KT P6SM SCT050
     FM021900 29005KT P6SM BKN050
     FM022300 25004KT P6SM SCT070=

USA.gov is the U.S. government's official web portal to all federal, state and local government web resources and services.